Time;durP1;ratioP1;P1;durP2;ratioP2;P2;SDS_P1;SDS_P2;PMS_P1;PMS_P2;Temp;Humidity;BMP_temperature;BMP_pressure;BME280_temperature;BME280_humidity;BME280_pressure;Samples;Min_cycle;Max_cycle;Signal;HPM_P1;HPM_P2
2021/06/30 00:02:21;;;;;;;6.23;1.90;;;;;;;19.46;72.87;99996.44;5037664;28;20481;-85
2021/06/30 00:04:46;;;;;;;4.80;2.20;;;;;;;19.41;73.20;99991.09;5043491;28;20791;-85
2021/06/30 00:07:12;;;;;;;4.80;2.03;;;;;;;19.32;73.25;100001.19;5040127;28;20385;-85
2021/06/30 00:09:38;;;;;;;3.30;1.80;;;;;;;19.35;73.14;100005.25;5043139;28;20521;-85
2021/06/30 00:12:04;;;;;;;3.90;1.73;;;;;;;19.40;72.34;100007.84;5032800;28;20838;-85
2021/06/30 00:14:29;;;;;;;2.35;1.45;;;;;;;19.37;72.39;100009.28;5029515;28;20479;-85
2021/06/30 00:16:55;;;;;;;2.23;1.57;;;;;;;19.34;72.22;100011.84;5043481;28;20468;-85
2021/06/30 00:19:21;;;;;;;2.22;1.17;;;;;;;19.27;71.76;100015.03;5037475;28;20472;-85
2021/06/30 00:21:47;;;;;;;3.08;1.30;;;;;;;19.23;71.69;100011.31;5039140;28;20402;-85
2021/06/30 00:24:13;;;;;;;2.05;1.02;;;;;;;19.24;71.04;100004.66;5030792;28;20403;-86
2021/06/30 00:26:39;;;;;;;2.15;1.30;;;;;;;19.22;70.85;100008.88;5044067;28;20398;-85
2021/06/30 00:29:07;;;;;;;2.60;1.00;;;;;;;19.21;70.51;100019.03;5040895;28;20748;-86
2021/06/30 00:31:33;;;;;;;1.05;0.85;;;;;;;19.14;70.58;100004.94;5040997;28;20394;-85
2021/06/30 00:34:02;;;;;;;3.40;0.98;;;;;;;18.94;70.41;100011.72;5044769;28;20407;-85
2021/06/30 00:36:33;;;;;;;2.47;0.70;;;;;;;18.93;70.35;100012.06;5045642;28;20831;-86
2021/06/30 00:38:59;;;;;;;1.13;0.68;;;;;;;18.96;70.28;100016.91;5075879;28;20397;-86
2021/06/30 00:41:25;;;;;;;1.60;0.80;;;;;;;19.03;69.88;100020.03;5036111;28;20485;-86
2021/06/30 00:43:50;;;;;;;3.67;0.70;;;;;;;19.00;69.79;100020.66;5038412;28;20410;-85
2021/06/30 00:46:27;;;;;;;3.20;0.90;;;;;;;19.00;69.79;100031.66;5047752;28;20397;-86
2021/06/30 00:48:52;;;;;;;1.65;0.55;;;;;;;18.94;69.37;100033.69;5043817;28;20433;-86
2021/06/30 00:51:17;;;;;;;3.90;0.75;;;;;;;18.98;69.76;100033.88;5037844;28;20518;-86
2021/06/30 00:53:43;;;;;;;4.00;0.73;;;;;;;19.04;69.97;100027.13;5046776;28;20810;-85
2021/06/30 00:56:08;;;;;;;3.10;0.63;;;;;;;18.96;69.63;100025.97;5059194;28;20398;-86
2021/06/30 00:58:33;;;;;;;4.10;0.87;;;;;;;18.94;69.65;100021.88;5036155;28;20412;-86
2021/06/30 01:00:59;;;;;;;3.23;1.03;;;;;;;18.95;69.71;100012.53;5052173;28;20435;-86
2021/06/30 01:03:24;;;;;;;3.43;0.53;;;;;;;18.93;69.24;100003.81;5026284;28;20457;-86
2021/06/30 01:05:49;;;;;;;2.63;0.70;;;;;;;18.94;69.09;100027.38;5045541;28;20754;-86
2021/06/30 01:08:15;;;;;;;2.43;0.50;;;;;;;18.92;68.88;100018.66;5053943;28;20424;-86
2021/06/30 01:10:40;;;;;;;3.70;0.80;;;;;;;18.90;69.07;100018.16;5042255;28;20945;-86
2021/06/30 01:13:06;;;;;;;0.50;0.50;;;;;;;18.89;68.27;100013.78;5039449;28;20417;-86
2021/06/30 01:15:45;;;;;;;2.50;0.45;;;;;;;18.86;67.78;100020.72;5045875;28;20402;-86
2021/06/30 01:18:10;;;;;;;2.72;0.30;;;;;;;18.87;67.90;100032.50;5033055;28;20741;-86
2021/06/30 01:20:35;;;;;;;3.40;0.40;;;;;;;18.84;67.85;100031.19;5027396;28;20441;-85
2021/06/30 01:23:08;;;;;;;2.23;0.53;;;;;;;18.79;67.71;100022.25;5046835;28;20399;-85
2021/06/30 01:25:34;;;;;;;2.30;0.40;;;;;;;18.72;67.94;100022.69;5044627;28;20397;-85
2021/06/30 01:27:59;;;;;;;0.70;0.40;;;;;;;18.73;67.77;100018.00;5054813;28;20426;-86
2021/06/30 01:30:24;;;;;;;4.80;0.40;;;;;;;18.62;68.04;100020.97;5026744;28;20530;-86
2021/06/30 01:32:50;;;;;;;2.88;0.38;;;;;;;18.59;68.17;100020.78;5058258;28;20412;-86
2021/06/30 01:35:20;;;;;;;1.70;0.50;;;;;;;18.66;68.16;100018.44;5036211;28;20732;-86
2021/06/30 01:37:47;;;;;;;5.35;0.47;;;;;;;18.58;67.86;100022.72;5034928;28;20751;-86
2021/06/30 01:40:13;;;;;;;2.90;0.50;;;;;;;18.58;67.67;100033.69;5036406;28;20396;-86
2021/06/30 01:42:42;;;;;;;1.37;0.33;;;;;;;18.53;68.21;100031.06;5045511;28;20401;-86
2021/06/30 01:45:08;;;;;;;2.63;0.30;;;;;;;18.57;68.13;100036.75;5041639;28;20864;-86
2021/06/30 01:47:34;;;;;;;2.33;0.50;;;;;;;18.51;68.33;100037.97;5039973;28;20404;-86
2021/06/30 01:49:59;;;;;;;1.10;0.50;;;;;;;18.52;68.36;100040.41;5043695;28;20419;-86
2021/06/30 01:52:29;;;;;;;2.93;0.50;;;;;;;18.56;68.35;100035.94;5034412;28;20394;-87
2021/06/30 01:54:54;;;;;;;3.13;0.50;;;;;;;18.58;68.17;100038.34;5041943;28;20421;-85
2021/06/30 01:57:19;;;;;;;7.00;0.60;;;;;;;18.56;68.15;100035.13;5054674;28;20902;-86
2021/06/30 01:59:44;;;;;;;1.83;0.50;;;;;;;18.56;67.96;100033.19;5040164;28;20556;-86
2021/06/30 02:02:13;;;;;;;1.40;0.30;;;;;;;18.61;68.27;100043.22;5045186;28;20401;-86
2021/06/30 02:04:38;;;;;;;1.80;0.40;;;;;;;18.58;68.56;100041.91;5029008;28;20401;-85
2021/06/30 02:07:04;;;;;;;2.23;0.50;;;;;;;18.53;69.11;100044.78;5038420;28;20397;-86
2021/06/30 02:09:29;;;;;;;1.75;0.50;;;;;;;18.51;69.52;100048.94;5046401;28;20466;-85
2021/06/30 02:11:54;;;;;;;0.30;0.30;;;;;;;18.49;69.60;100053.91;5032582;28;20731;-86
2021/06/30 02:14:20;;;;;;;2.40;0.40;;;;;;;18.51;69.72;100060.72;5042060;28;20385;-86
2021/06/30 02:16:45;;;;;;;2.25;0.50;;;;;;;18.43;69.97;100057.88;5046167;28;20397;-86
2021/06/30 02:19:11;;;;;;;4.20;0.73;;;;;;;18.38;69.84;100060.69;5038433;28;20401;-85
2021/06/30 02:21:37;;;;;;;2.63;0.45;;;;;;;18.36;69.70;100057.47;5035364;28;20748;-85
2021/06/30 02:24:04;;;;;;;2.85;0.30;;;;;;;18.34;69.72;100052.28;5040697;28;20407;-86
2021/06/30 02:26:30;;;;;;;3.42;0.30;;;;;;;18.31;69.87;100043.88;5061233;28;20395;-86
2021/06/30 02:28:56;;;;;;;2.03;0.30;;;;;;;18.30;70.10;100047.72;5040325;28;20499;-85
2021/06/30 02:31:23;;;;;;;2.00;0.33;;;;;;;18.24;70.21;100051.69;5046435;28;20473;-85
2021/06/30 02:33:49;;;;;;;2.90;0.50;;;;;;;18.12;69.96;100054.91;5032238;28;20464;-85
2021/06/30 02:36:15;;;;;;;2.47;0.50;;;;;;;18.09;70.15;100055.53;5029807;28;20430;-86
2021/06/30 02:38:40;;;;;;;1.87;0.40;;;;;;;18.08;70.12;100054.72;5045917;28;20753;-87
2021/06/30 02:41:06;;;;;;;2.20;0.40;;;;;;;18.05;70.13;100046.28;5037685;28;20757;-86
2021/06/30 02:43:31;;;;;;;3.10;0.40;;;;;;;17.91;70.45;100049.03;5041511;28;20431;-86
2021/06/30 02:45:56;;;;;;;0.50;0.50;;;;;;;17.95;70.62;100049.22;5041015;28;20770;-86
2021/06/30 02:48:23;;;;;;;1.20;0.30;;;;;;;17.92;70.82;100042.41;5057868;28;20442;-85
2021/06/30 02:50:49;;;;;;;2.40;0.60;;;;;;;18.00;70.61;100040.91;5026073;28;20428;-86
2021/06/30 02:53:16;;;;;;;0.93;0.30;;;;;;;18.01;70.60;100048.03;5045203;28;20389;-85
2021/06/30 02:55:41;;;;;;;3.10;0.40;;;;;;;17.81;71.01;100049.22;5038738;28;20394;-85
2021/06/30 02:58:06;;;;;;;1.50;0.30;;;;;;;17.88;70.93;100054.31;5021213;28;20415;-86
2021/06/30 03:00:31;;;;;;;0.80;0.23;;;;;;;17.86;71.13;100053.78;5045510;28;20900;-87
2021/06/30 03:02:57;;;;;;;1.75;0.38;;;;;;;17.67;71.74;100050.31;5054429;28;20942;-85
2021/06/30 03:05:22;;;;;;;2.10;0.20;;;;;;;17.62;72.06;100046.53;5038666;28;20387;-86
2021/06/30 03:07:50;;;;;;;1.10;0.30;;;;;;;17.68;72.51;100051.94;5046826;28;20877;-86
2021/06/30 03:10:16;;;;;;;1.20;0.30;;;;;;;17.67;72.13;100045.66;5038351;28;20490;-86
2021/06/30 03:12:42;;;;;;;1.40;0.40;;;;;;;17.59;72.72;100047.13;5038374;28;20411;-85
2021/06/30 03:15:11;;;;;;;1.10;0.37;;;;;;;17.67;72.41;100045.66;5040840;28;20466;-85
2021/06/30 03:17:37;;;;;;;0.40;0.40;;;;;;;17.69;72.35;100056.28;5040580;28;20394;-85
2021/06/30 03:20:08;;;;;;;0.80;0.43;;;;;;;17.67;72.19;100047.56;5037676;28;20379;-85
2021/06/30 03:22:33;;;;;;;0.80;0.35;;;;;;;17.54;72.17;100058.16;5038094;28;20450;-86
2021/06/30 03:24:59;;;;;;;0.43;0.30;;;;;;;17.60;72.11;100051.50;5038672;28;20407;-86
2021/06/30 03:27:24;;;;;;;0.80;0.30;;;;;;;17.57;72.07;100060.34;5042997;28;20476;-85
2021/06/30 03:29:50;;;;;;;2.57;0.40;;;;;;;17.63;72.02;100059.13;5052133;28;20780;-85
2021/06/30 03:32:15;;;;;;;1.10;0.20;;;;;;;17.59;71.66;100060.03;5040969;28;20769;-85
2021/06/30 03:34:41;;;;;;;0.20;0.20;;;;;;;17.48;71.97;100056.63;5044050;28;20403;-85
2021/06/30 03:37:06;;;;;;;4.33;0.30;;;;;;;17.48;71.70;100055.81;5035485;28;20753;-86
2021/06/30 03:39:31;;;;;;;2.57;1.13;;;;;;;17.45;72.05;100054.47;5040946;28;20411;-85
2021/06/30 03:41:57;;;;;;;2.50;0.68;;;;;;;17.42;72.04;100049.59;5037641;28;20409;-87
2021/06/30 03:44:22;;;;;;;2.17;1.17;;;;;;;17.38;72.15;100050.50;5045060;28;20386;-85
2021/06/30 03:46:49;;;;;;;1.70;0.98;;;;;;;17.42;71.89;100054.28;5039439;28;20476;-85
2021/06/30 03:49:15;;;;;;;0.50;0.50;;;;;;;17.49;71.51;100049.19;5037830;28;20401;-86
2021/06/30 03:51:40;;;;;;;4.00;0.60;;;;;;;17.44;71.26;100052.88;5060450;28;20408;-86
2021/06/30 03:54:08;;;;;;;3.40;0.47;;;;;;;17.37;71.32;100057.09;5038439;28;20436;-86
2021/06/30 03:56:33;;;;;;;1.77;0.67;;;;;;;17.41;71.08;100053.47;5036542;28;20773;-85
2021/06/30 03:58:59;;;;;;;0.60;0.33;;;;;;;17.36;71.26;100055.44;5059406;28;20411;-86
2021/06/30 04:01:24;;;;;;;3.40;0.40;;;;;;;17.31;71.37;100041.84;5038037;28;20516;-86
2021/06/30 04:04:01;;;;;;;1.27;0.50;;;;;;;17.34;71.07;100044.81;5037549;28;20417;-86
2021/06/30 04:06:27;;;;;;;2.40;0.40;;;;;;;17.30;71.16;100042.97;5043650;28;20401;-86
2021/06/30 04:08:52;;;;;;;0.53;0.40;;;;;;;17.29;71.23;100049.56;5034835;28;20429;-87
2021/06/30 04:11:17;;;;;;;1.60;0.50;;;;;;;17.24;71.22;100046.91;5041550;28;20425;-86
2021/06/30 04:13:43;;;;;;;1.50;0.80;;;;;;;17.21;71.73;100050.25;5041216;28;20493;-86
2021/06/30 04:16:09;;;;;;;1.25;0.63;;;;;;;17.33;71.09;100045.91;5046367;28;20856;-86
2021/06/30 04:18:34;;;;;;;0.30;0.30;;;;;;;17.28;71.36;100047.94;5033692;28;20402;-86
2021/06/30 04:21:00;;;;;;;0.43;0.40;;;;;;;17.31;71.33;100045.41;5044087;28;20414;-86
2021/06/30 04:23:25;;;;;;;0.50;0.50;;;;;;;17.35;71.21;100045.63;5034933;28;20745;-86
2021/06/30 04:25:50;;;;;;;1.13;0.40;;;;;;;17.35;71.07;100049.19;5042264;28;20413;-86
2021/06/30 04:28:16;;;;;;;2.23;0.30;;;;;;;17.37;70.78;100046.13;5049408;28;20803;-85
2021/06/30 04:30:42;;;;;;;1.10;0.27;;;;;;;17.38;71.08;100045.03;5029640;28;20426;-85
2021/06/30 04:33:07;;;;;;;1.77;0.50;;;;;;;17.37;70.77;100046.94;5051276;28;20393;-85
2021/06/30 04:35:32;;;;;;;3.08;0.38;;;;;;;17.41;70.68;100050.72;5026195;28;20435;-85
2021/06/30 04:38:00;;;;;;;0.20;0.20;;;;;;;17.38;70.64;100056.81;5031934;28;20403;-84
2021/06/30 04:40:25;;;;;;;1.67;0.43;;;;;;;17.45;70.55;100059.94;5043523;28;20405;-84
2021/06/30 04:42:50;;;;;;;1.52;0.60;;;;;;;17.52;70.25;100054.09;5045271;28;20439;-85
2021/06/30 04:45:16;;;;;;;0.67;0.40;;;;;;;17.53;70.36;100061.19;5040343;28;20441;-85
2021/06/30 04:47:41;;;;;;;2.47;0.30;;;;;;;17.54;70.29;100060.91;5031472;28;20420;-86
2021/06/30 04:50:07;;;;;;;0.45;0.45;;;;;;;17.48;70.34;100064.84;5044557;28;20892;-85
2021/06/30 04:52:32;;;;;;;1.10;0.20;;;;;;;17.48;70.24;100056.63;5037873;28;20408;-86
2021/06/30 04:54:57;;;;;;;0.40;0.40;;;;;;;17.48;70.33;100062.13;5040372;28;20409;-85
2021/06/30 04:57:22;;;;;;;0.60;0.40;;;;;;;17.50;70.26;100070.84;5053476;28;20409;-86
2021/06/30 04:59:48;;;;;;;0.40;0.30;;;;;;;17.51;70.38;100060.69;5030242;28;20416;-86
2021/06/30 05:02:15;;;;;;;1.53;0.50;;;;;;;17.45;70.29;100065.44;5037419;28;20430;-86
2021/06/30 05:04:40;;;;;;;1.40;0.20;;;;;;;17.35;70.49;100054.66;5043620;28;20463;-85
2021/06/30 05:07:05;;;;;;;1.10;0.20;;;;;;;17.35;70.79;100056.59;5045502;28;20411;-85
2021/06/30 05:09:31;;;;;;;3.70;0.57;;;;;;;17.40;70.68;100057.31;5035861;28;20834;-85
2021/06/30 05:11:56;;;;;;;2.33;0.50;;;;;;;17.41;70.15;100050.72;5026659;28;20438;-87
2021/06/30 05:14:21;;;;;;;2.00;0.40;;;;;;;17.48;69.84;100047.59;5027396;28;20415;-87
2021/06/30 05:16:46;;;;;;;2.10;0.50;;;;;;;17.37;70.25;100057.09;5023471;28;20413;-86
2021/06/30 05:19:12;;;;;;;1.07;0.40;;;;;;;17.31;70.42;100052.81;5024598;28;20946;-87
2021/06/30 05:21:37;;;;;;;1.48;0.50;;;;;;;17.26;70.54;100056.44;5030215;28;20411;-86
2021/06/30 05:24:03;;;;;;;2.83;0.70;;;;;;;17.10;70.88;100047.66;5031257;28;20401;-87
2021/06/30 05:26:28;;;;;;;3.30;0.50;;;;;;;17.19;70.73;100055.22;5026994;28;20441;-86
2021/06/30 05:28:55;;;;;;;4.80;0.57;;;;;;;17.24;71.25;100055.94;5020094;28;20405;-87
2021/06/30 05:31:20;;;;;;;6.60;0.60;;;;;;;17.22;70.83;100051.88;5026679;28;20490;-88
2021/06/30 05:33:45;;;;;;;2.57;0.43;;;;;;;17.28;70.66;100054.22;5032545;28;20988;-88
2021/06/30 05:36:10;;;;;;;0.97;0.50;;;;;;;17.34;70.38;100058.50;5029516;28;20405;-87
2021/06/30 05:38:36;;;;;;;0.47;0.47;;;;;;;17.44;70.09;100057.53;5023308;28;20910;-88
2021/06/30 05:41:02;;;;;;;0.60;0.30;;;;;;;17.46;69.69;100064.31;5018842;28;20411;-86
2021/06/30 05:43:28;;;;;;;0.80;0.60;;;;;;;17.48;69.86;100051.16;5021241;28;20414;-89
2021/06/30 05:45:54;;;;;;;1.97;0.63;;;;;;;17.49;70.04;100057.44;5020291;28;20846;-87
2021/06/30 05:48:19;;;;;;;0.60;0.50;;;;;;;17.53;69.71;100059.28;5026858;28;20439;-84
2021/06/30 05:50:44;;;;;;;1.60;0.37;;;;;;;17.64;69.62;100057.22;5032721;28;20419;-88
2021/06/30 05:53:09;;;;;;;1.67;0.37;;;;;;;17.87;69.26;100053.50;5032795;28;20424;-86
2021/06/30 05:55:35;;;;;;;0.80;0.47;;;;;;;17.99;68.95;100061.22;5032126;28;20416;-86
2021/06/30 05:58:00;;;;;;;5.50;0.33;;;;;;;18.04;68.59;100072.91;5014044;28;20490;-85
2021/06/30 06:00:25;;;;;;;1.70;0.40;;;;;;;18.11;68.40;100067.81;5032697;28;20430;-84
2021/06/30 06:02:51;;;;;;;2.47;0.50;;;;;;;18.26;68.25;100068.66;5032508;28;20423;-84
2021/06/30 06:05:16;;;;;;;0.80;0.50;;;;;;;18.42;67.74;100065.28;5031391;28;20482;-84
2021/06/30 06:07:42;;;;;;;1.30;0.50;;;;;;;18.47;67.43;100075.34;5023553;28;20409;-85
2021/06/30 06:10:11;;;;;;;2.33;0.40;;;;;;;18.55;67.44;100066.41;5030013;28;20415;-84
2021/06/30 06:12:38;;;;;;;3.83;0.60;;;;;;;18.70;67.39;100068.03;5032144;28;20469;-83
2021/06/30 06:15:05;;;;;;;1.30;0.40;;;;;;;18.73;67.01;100070.16;5031777;28;20530;-84
2021/06/30 06:17:30;;;;;;;1.00;0.30;;;;;;;18.72;66.70;100077.56;5019759;28;20395;-83
2021/06/30 06:19:56;;;;;;;1.70;0.60;;;;;;;18.80;66.76;100073.31;5031044;28;20411;-83
2021/06/30 06:22:21;;;;;;;5.97;0.90;;;;;;;18.96;66.63;100066.34;5019487;28;20830;-85
2021/06/30 06:24:46;;;;;;;1.80;0.40;;;;;;;18.98;66.32;100064.09;5026531;28;20398;-85
2021/06/30 06:27:11;;;;;;;1.20;0.33;;;;;;;18.80;66.57;100074.13;5045579;28;20801;-86
2021/06/30 06:29:38;;;;;;;0.57;0.30;;;;;;;18.65;67.26;100067.00;5034153;28;20410;-86
2021/06/30 06:32:04;;;;;;;3.38;0.30;;;;;;;18.60;67.76;100071.81;5030379;28;20774;-86
2021/06/30 06:34:30;;;;;;;1.58;0.52;;;;;;;18.56;67.95;100073.53;5030933;28;20813;-86
2021/06/30 06:36:57;;;;;;;3.60;0.40;;;;;;;18.43;68.43;100082.56;5024486;28;20507;-86
2021/06/30 06:39:22;;;;;;;1.33;0.50;;;;;;;18.37;68.80;100083.78;5026097;28;20399;-85
2021/06/30 06:41:48;;;;;;;5.10;0.40;;;;;;;18.33;69.25;100085.50;5022433;28;20742;-89
2021/06/30 06:44:15;;;;;;;3.90;0.30;;;;;;;18.29;69.40;100085.31;5016926;28;20412;-90
2021/06/30 06:46:41;;;;;;;1.10;0.28;;;;;;;18.30;69.25;100080.63;5023023;28;20488;-88
2021/06/30 06:49:09;;;;;;;1.08;0.30;;;;;;;18.31;69.64;100085.81;5017048;28;20480;-88
2021/06/30 06:51:38;;;;;;;2.78;0.40;;;;;;;18.32;69.30;100087.44;5029734;28;20457;-88
2021/06/30 06:54:04;;;;;;;1.20;0.32;;;;;;;18.44;69.14;100092.44;5025758;28;20409;-86
2021/06/30 06:56:30;;;;;;;2.80;0.45;;;;;;;18.36;68.94;100093.94;5029427;28;20405;-86
2021/06/30 06:58:55;;;;;;;2.73;0.40;;;;;;;18.32;69.26;100092.91;5031876;28;20785;-86
2021/06/30 07:01:21;;;;;;;1.93;0.50;;;;;;;18.41;69.62;100110.28;5030703;28;20406;-87
2021/06/30 07:03:47;;;;;;;2.45;0.50;;;;;;;18.36;69.40;100104.91;5031711;28;20396;-86
2021/06/30 07:06:12;;;;;;;1.48;0.55;;;;;;;18.34;69.62;100107.13;5027347;28;20400;-86
2021/06/30 07:08:38;;;;;;;1.80;0.40;;;;;;;18.31;69.72;100106.97;5026971;28;20426;-86
2021/06/30 07:11:03;;;;;;;3.20;0.32;;;;;;;18.29;70.12;100110.00;5030289;28;20510;-86
2021/06/30 07:13:28;;;;;;;1.57;0.40;;;;;;;18.27;70.13;100112.25;5028548;28;20398;-85
2021/06/30 07:15:53;;;;;;;0.37;0.30;;;;;;;18.15;70.17;100114.66;5031668;28;20395;-85
2021/06/30 07:18:19;;;;;;;0.83;0.47;;;;;;;18.10;70.14;100126.53;5030531;28;20402;-85
2021/06/30 07:20:44;;;;;;;1.13;0.40;;;;;;;18.10;70.91;100121.06;5031613;28;20391;-86
2021/06/30 07:23:13;;;;;;;1.00;0.50;;;;;;;18.15;71.07;100125.63;5027886;28;20396;-85
2021/06/30 07:25:40;;;;;;;4.00;0.57;;;;;;;18.17;71.23;100125.31;5025716;28;20391;-86
2021/06/30 07:28:06;;;;;;;2.58;0.65;;;;;;;18.16;71.46;100130.00;5031238;28;20398;-86
2021/06/30 07:30:32;;;;;;;2.53;0.50;;;;;;;18.05;71.38;100123.88;5030538;28;20766;-86
2021/06/30 07:32:58;;;;;;;0.98;0.40;;;;;;;17.94;71.91;100127.13;5031492;28;20421;-86
2021/06/30 07:35:23;;;;;;;2.35;0.60;;;;;;;17.92;71.98;100121.09;5031509;28;20395;-86
2021/06/30 07:37:49;;;;;;;1.40;0.67;;;;;;;17.87;71.68;100129.44;5030151;28;20396;-86
2021/06/30 07:40:14;;;;;;;0.80;0.60;;;;;;;17.84;72.13;100117.16;5028962;28;20460;-86
2021/06/30 07:42:40;;;;;;;1.10;0.40;;;;;;;17.90;71.51;100123.34;5032284;28;20433;-86
2021/06/30 07:45:05;;;;;;;0.40;0.40;;;;;;;17.84;72.14;100128.13;5035347;28;20410;-86
2021/06/30 07:47:31;;;;;;;2.73;0.60;;;;;;;17.79;72.14;100127.38;5034267;28;20395;-86
2021/06/30 07:49:56;;;;;;;0.87;0.40;;;;;;;17.75;72.41;100123.63;5033411;28;20517;-85
2021/06/30 07:52:22;;;;;;;4.10;0.50;;;;;;;17.75;72.07;100127.16;5022095;28;20450;-84
2021/06/30 07:54:47;;;;;;;0.50;0.43;;;;;;;17.66;72.39;100120.75;5035030;28;20897;-83
2021/06/30 07:57:12;;;;;;;0.50;0.50;;;;;;;17.60;73.13;100127.41;5028137;28;20898;-84
2021/06/30 07:59:38;;;;;;;0.40;0.40;;;;;;;17.79;72.59;100124.63;5034348;28;20423;-83
2021/06/30 08:02:03;;;;;;;0.50;0.50;;;;;;;17.80;72.27;100129.81;5035027;28;20470;-84
2021/06/30 08:04:28;;;;;;;0.80;0.50;;;;;;;17.76;72.68;100126.06;5028030;28;20407;-84
2021/06/30 08:06:54;;;;;;;1.13;0.90;;;;;;;17.55;72.98;100133.78;5027272;28;20418;-84
2021/06/30 08:09:19;;;;;;;2.10;0.70;;;;;;;17.60;73.31;100127.41;5033315;28;20407;-86
2021/06/30 08:11:44;;;;;;;1.83;0.67;;;;;;;17.57;73.05;100128.03;5027476;28;20408;-86
2021/06/30 08:14:10;;;;;;;1.60;0.40;;;;;;;17.60;72.99;100130.97;5032046;28;20403;-86
2021/06/30 08:16:35;;;;;;;1.92;0.50;;;;;;;17.58;72.95;100140.63;5034938;28;20395;-86
2021/06/30 08:19:00;;;;;;;1.87;0.60;;;;;;;17.67;73.10;100129.78;5033492;28;20449;-86
2021/06/30 08:21:26;;;;;;;0.80;0.40;;;;;;;17.69;72.94;100131.09;5033609;28;20402;-86
2021/06/30 08:23:51;;;;;;;1.80;0.45;;;;;;;17.78;73.05;100134.81;5031991;28;20444;-85
2021/06/30 08:26:17;;;;;;;1.20;0.50;;;;;;;17.84;72.70;100143.75;5022789;28;20413;-86
2021/06/30 08:28:42;;;;;;;0.98;0.65;;;;;;;17.87;72.82;100137.66;5029703;28;20402;-86
2021/06/30 08:31:08;;;;;;;0.70;0.30;;;;;;;17.90;73.17;100135.13;5034253;28;20418;-86
2021/06/30 08:33:33;;;;;;;0.60;0.50;;;;;;;18.01;72.74;100142.03;5034576;28;20948;-86
2021/06/30 08:35:59;;;;;;;1.03;0.50;;;;;;;17.93;72.32;100137.28;5028429;28;20959;-86
2021/06/30 08:38:24;;;;;;;1.90;0.50;;;;;;;17.91;72.48;100133.22;5022193;28;20499;-86
2021/06/30 08:40:56;;;;;;;2.90;0.60;;;;;;;17.95;72.59;100140.50;5029457;28;20411;-86
2021/06/30 08:43:21;;;;;;;0.43;0.43;;;;;;;18.15;72.47;100144.81;5029349;28;20380;-86
2021/06/30 08:45:47;;;;;;;2.10;0.53;;;;;;;18.32;72.27;100145.03;5028917;28;20406;-85
2021/06/30 08:48:14;;;;;;;3.03;0.70;;;;;;;18.32;71.71;100138.75;5028362;28;20470;-86
2021/06/30 08:50:40;;;;;;;0.70;0.45;;;;;;;18.32;71.32;100133.25;5025625;28;20417;-86
2021/06/30 08:53:13;;;;;;;1.90;0.50;;;;;;;18.50;70.81;100135.97;5026353;28;20415;-86
2021/06/30 08:55:43;;;;;;;2.65;0.77;;;;;;;18.53;70.86;100137.28;5023899;28;20408;-86
2021/06/30 08:58:09;;;;;;;0.50;0.50;;;;;;;18.43;71.17;100135.50;5030673;28;20453;-88
2021/06/30 09:00:34;;;;;;;0.80;0.50;;;;;;;18.53;70.97;100140.00;5049319;28;20391;-87
2021/06/30 09:03:01;;;;;;;1.50;0.63;;;;;;;18.59;71.10;100138.78;5033991;28;20383;-86
2021/06/30 09:07:56;;;;;;;1.10;0.70;;;;;;;18.86;70.76;100141.53;5031798;28;20415;-86
2021/06/30 09:10:37;;;;;;;0.70;0.57;;;;;;;18.92;70.20;100134.78;5027931;28;20820;-87
2021/06/30 09:13:17;;;;;;;2.40;0.70;;;;;;;18.86;70.25;100138.78;5021613;28;20466;-87
2021/06/30 09:15:42;;;;;;;4.30;0.88;;;;;;;18.83;70.33;100135.81;5014862;28;20409;-87
2021/06/30 09:18:18;;;;;;;0.90;0.60;;;;;;;18.79;70.13;100134.81;5017664;28;20776;-85
2021/06/30 09:20:45;;;;;;;1.25;0.50;;;;;;;18.89;70.05;100140.09;5033457;28;20450;-85
2021/06/30 09:23:11;;;;;;;1.10;0.70;;;;;;;18.95;69.72;100138.84;5026437;28;20399;-85
2021/06/30 09:25:40;;;;;;;0.50;0.50;;;;;;;19.03;69.64;100140.88;5021938;28;20438;-86
2021/06/30 09:28:19;;;;;;;1.20;0.57;;;;;;;19.00;69.38;100139.53;5027998;28;20441;-85
2021/06/30 09:31:15;;;;;;;0.85;0.60;;;;;;;18.82;69.64;100140.50;5027069;28;20747;-85
2021/06/30 09:33:55;;;;;;;0.75;0.55;;;;;;;18.90;69.89;100142.50;5026116;28;20473;-85
2021/06/30 09:36:30;;;;;;;0.47;0.47;;;;;;;18.98;69.69;100138.22;5033241;28;20777;-85
2021/06/30 09:39:08;;;;;;;0.57;0.52;;;;;;;18.97;69.87;100140.16;5033071;28;20395;-85
2021/06/30 09:41:34;;;;;;;0.45;0.45;;;;;;;19.04;68.97;100139.75;5040089;28;20499;-85
2021/06/30 09:44:19;;;;;;;1.33;0.40;;;;;;;19.06;68.91;100135.59;5023653;28;20387;-84
2021/06/30 09:46:46;;;;;;;0.75;0.55;;;;;;;19.20;69.63;100140.25;5030684;28;20421;-85
2021/06/30 09:49:17;;;;;;;1.65;0.80;;;;;;;19.28;69.04;100139.47;5029893;28;20399;-86
2021/06/30 09:51:45;;;;;;;3.92;0.65;;;;;;;19.37;68.53;100132.94;5029261;28;20454;-85
2021/06/30 09:54:12;;;;;;;0.60;0.60;;;;;;;19.56;67.88;100138.31;5032538;28;20395;-85
2021/06/30 09:56:47;;;;;;;2.88;0.75;;;;;;;19.80;67.83;100126.97;5031809;28;20399;-85
2021/06/30 09:59:19;;;;;;;0.50;0.50;;;;;;;19.98;67.48;100125.97;5032959;28;20482;-85
2021/06/30 10:01:52;;;;;;;1.45;0.50;;;;;;;20.05;67.02;100126.34;5031868;28;20418;-85
2021/06/30 10:04:29;;;;;;;0.68;0.68;;;;;;;19.97;66.20;100116.06;5028859;28;20894;-85
2021/06/30 10:06:57;;;;;;;1.25;0.60;;;;;;;19.95;66.96;100121.09;5032739;28;20399;-85
2021/06/30 10:09:22;;;;;;;0.30;0.30;;;;;;;20.33;65.89;100127.78;5014341;28;20419;-85
2021/06/30 10:12:09;;;;;;;1.90;0.70;;;;;;;21.22;64.86;100121.88;5013240;28;20837;-84
2021/06/30 10:14:36;;;;;;;0.40;0.40;;;;;;;21.57;62.15;100114.41;5029753;28;20391;-85
2021/06/30 10:17:02;;;;;;;1.10;0.40;;;;;;;21.51;61.81;100122.03;5026528;28;20910;-85
2021/06/30 10:19:28;;;;;;;1.17;0.60;;;;;;;21.53;62.01;100118.97;5032475;28;20902;-85
2021/06/30 10:21:54;;;;;;;1.50;0.30;;;;;;;21.77;61.35;100129.47;5030088;28;20400;-85
2021/06/30 10:24:20;;;;;;;1.10;0.70;;;;;;;22.38;60.48;100117.16;5030212;28;20493;-85
2021/06/30 10:26:46;;;;;;;2.35;0.63;;;;;;;23.68;57.89;100122.31;5032074;28;20395;-85
2021/06/30 10:29:12;;;;;;;2.20;0.40;;;;;;;23.81;56.10;100120.38;5031064;28;20799;-85
2021/06/30 10:31:41;;;;;;;1.50;0.50;;;;;;;24.23;55.31;100107.25;5030380;28;20510;-85
2021/06/30 10:34:08;;;;;;;1.00;0.43;;;;;;;24.79;53.23;100102.78;5015500;28;20959;-86
2021/06/30 10:36:49;;;;;;;0.40;0.40;;;;;;;25.40;51.24;100100.69;5023182;28;20410;-86
2021/06/30 10:39:16;;;;;;;1.40;0.40;;;;;;;24.70;51.54;100102.06;5040820;28;20408;-86
2021/06/30 10:41:51;;;;;;;0.55;0.30;;;;;;;24.05;52.31;100091.97;5003710;28;20439;-86
2021/06/30 10:44:23;;;;;;;3.28;0.47;;;;;;;23.61;53.82;100094.38;5028479;28;20406;-85
2021/06/30 10:46:49;;;;;;;0.73;0.43;;;;;;;23.17;54.70;100097.84;5032581;28;20445;-85
2021/06/30 10:49:27;;;;;;;1.08;0.38;;;;;;;23.09;55.40;100095.94;5030034;28;20408;-87
2021/06/30 10:52:03;;;;;;;2.65;0.40;;;;;;;22.97;55.68;100093.94;5031807;28;20406;-86
2021/06/30 10:54:40;;;;;;;1.67;0.60;;;;;;;22.99;55.32;100096.34;5038144;28;20478;-86
2021/06/30 10:57:24;;;;;;;0.50;0.30;;;;;;;23.01;53.92;100089.34;5030577;28;20449;-86
2021/06/30 11:00:16;;;;;;;0.37;0.20;;;;;;;;;;5034040;28;20399;-87
2021/06/30 11:02:41;;;;;;;1.30;0.20;;;;;;;22.34;55.45;100078.34;5030899;28;20415;-87
2021/06/30 11:05:12;;;;;;;0.60;0.50;;;;;;;22.17;55.92;100095.78;5020421;28;20408;-87
2021/06/30 11:07:39;;;;;;;1.20;0.30;;;;;;;21.98;56.16;100094.56;5026433;28;20790;-87
2021/06/30 11:10:34;;;;;;;2.22;0.50;;;;;;;22.02;56.70;100082.53;5030078;28;20411;-86
2021/06/30 11:13:00;;;;;;;2.00;0.60;;;;;;;22.26;56.20;100086.69;5020832;28;20441;-86
2021/06/30 11:15:37;;;;;;;1.70;0.38;;;;;;;22.51;56.14;100086.53;5026729;28;20459;-86
2021/06/30 11:18:26;;;;;;;1.00;0.40;;;;;;;22.72;55.96;100089.38;5040592;28;20829;-86
2021/06/30 11:20:53;;;;;;;1.77;0.40;;;;;;;22.79;55.77;100094.38;5022954;28;20398;-88
2021/06/30 11:23:25;;;;;;;1.48;0.40;;;;;;;22.42;55.89;100076.69;5031053;28;20386;-86
2021/06/30 11:25:56;;;;;;;1.50;0.40;;;;;;;22.09;56.60;100080.09;5031449;28;20893;-87
2021/06/30 11:28:41;;;;;;;0.40;0.40;;;;;;;21.90;57.77;100090.66;5029547;28;20485;-87
2021/06/30 11:31:25;;;;;;;0.30;0.30;;;;;;;21.59;59.68;100085.38;5038432;28;20875;-88